Time;durP1;ratioP1;P1;durP2;ratioP2;P2;SDS_P1;SDS_P2;PMS_P1;PMS_P2;Temp;Humidity;BMP_temperature;BMP_pressure;BME280_temperature;BME280_humidity;BME280_pressure;Samples;Min_cycle;Max_cycle;Signal;HPM_P1;HPM_P2
2022/08/26 00:00:17;;;;;;;3.88;1.48;;;;;;;;;;5072600;28;20094;-62
2022/08/26 00:02:44;;;;;;;2.40;1.05;;;;;;;;;;5066139;28;20101;-63
2022/08/26 00:05:19;;;;;;;1.45;1.10;;;;;;;;;;5072617;28;20123;-63
2022/08/26 00:07:46;;;;;;;3.10;1.48;;;;;;;;;;5049090;28;20096;-62
2022/08/26 00:10:13;;;;;;;1.33;1.20;;;;;;;;;;5064735;28;20087;-62
2022/08/26 00:12:51;;;;;;;4.80;1.48;;;;;;;;;;5061975;28;20052;-62
2022/08/26 00:15:20;;;;;;;2.08;1.13;;;;;;;;;;5072086;28;20559;-51
2022/08/26 00:17:56;;;;;;;4.40;1.52;;;;;;;;;;5070663;28;20049;-61
2022/08/26 00:20:25;;;;;;;8.48;1.50;;;;;;;;;;5070049;28;20040;-60
2022/08/26 00:22:53;;;;;;;1.48;1.30;;;;;;;;;;5070837;28;20044;-60
2022/08/26 00:25:40;;;;;;;2.00;1.50;;;;;;;;;;5069325;28;20056;-58
2022/08/26 00:28:19;;;;;;;4.03;1.67;;;;;;;;;;5074287;28;20063;-59
2022/08/26 00:30:54;;;;;;;2.05;1.33;;;;;;;;;;5079009;28;20565;-60
2022/08/26 00:33:21;;;;;;;3.10;1.52;;;;;;;;;;5073436;28;20105;-63
2022/08/26 00:35:49;;;;;;;3.30;1.25;;;;;;;;;;5072491;28;20059;-52
2022/08/26 00:38:23;;;;;;;2.38;1.33;;;;;;;;;;5072847;28;20479;-54
2022/08/26 00:40:52;;;;;;;1.38;1.13;;;;;;;;;;5070160;28;20044;-52
2022/08/26 00:43:21;;;;;;;4.82;1.80;;;;;;;;;;5066439;28;20071;-53
2022/08/26 00:46:07;;;;;;;2.78;1.40;;;;;;;;;;5068072;28;20063;-53
2022/08/26 00:48:35;;;;;;;3.65;1.60;;;;;;;;;;5067239;28;20487;-52
2022/08/26 00:51:14;;;;;;;2.17;1.40;;;;;;;;;;5073063;28;20044;-54
2022/08/26 00:53:43;;;;;;;2.17;1.15;;;;;;;;;;5076680;28;20534;-44
2022/08/26 00:56:22;;;;;;;6.10;1.20;;;;;;;;;;5072414;28;20047;-62
2022/08/26 00:58:49;;;;;;;3.45;1.58;;;;;;;;;;5076298;28;20049;-63
2022/08/26 01:01:17;;;;;;;3.05;1.42;;;;;;;;;;5074982;28;20040;-62
2022/08/26 01:03:52;;;;;;;3.13;1.38;;;;;;;;;;5067103;28;20049;-62
2022/08/26 01:06:21;;;;;;;2.85;1.60;;;;;;;;;;5076458;28;20183;-62
2022/08/26 01:08:51;;;;;;;5.85;1.55;;;;;;;;;;5073639;28;20581;-62
2022/08/26 01:11:25;;;;;;;1.83;1.23;;;;;;;;;;5052322;28;20106;-50
2022/08/26 01:13:54;;;;;;;5.38;1.80;;;;;;;;;;5068287;28;20106;-53
2022/08/26 01:16:23;;;;;;;2.35;1.30;;;;;;;;;;5069215;28;20068;-55
2022/08/26 01:18:59;;;;;;;2.35;1.42;;;;;;;;;;5051612;28;20053;-52
2022/08/26 01:21:33;;;;;;;4.88;1.30;;;;;;;;;;5070842;28;20135;-56
2022/08/26 01:24:20;;;;;;;3.45;1.70;;;;;;;;;;5076241;28;20078;-55
2022/08/26 01:27:00;;;;;;;3.63;1.50;;;;;;;;;;5068378;28;20167;-54
2022/08/26 01:29:34;;;;;;;2.03;1.40;;;;;;;;;;5073184;28;20589;-55
2022/08/26 01:32:02;;;;;;;4.80;1.65;;;;;;;;;;5068154;28;20075;-53
2022/08/26 01:34:33;;;;;;;1.23;1.13;;;;;;;;;;5072079;28;20346;-62
2022/08/26 01:37:19;;;;;;;2.63;1.40;;;;;;;;;;5068372;28;20094;-60
2022/08/26 01:39:48;;;;;;;2.60;1.52;;;;;;;;;;5068861;28;20144;-63
2022/08/26 01:42:24;;;;;;;1.88;1.33;;;;;;;;;;5068806;28;20492;-62
2022/08/26 01:44:51;;;;;;;3.03;1.40;;;;;;;;;;5067566;28;20127;-62
2022/08/26 01:47:20;;;;;;;1.77;1.23;;;;;;;;;;5068191;28;20080;-63
2022/08/26 01:49:56;;;;;;;4.28;1.55;;;;;;;;;;5071833;28;20062;-53
2022/08/26 01:52:26;;;;;;;3.42;1.50;;;;;;;;;;5068247;28;20052;-51
2022/08/26 01:54:55;;;;;;;6.60;1.52;;;;;;;;;;5076832;28;20518;-61
2022/08/26 01:57:29;;;;;;;2.50;1.48;;;;;;;;;;5068722;28;20595;-60
2022/08/26 01:59:58;;;;;;;6.25;1.83;;;;;;;;;;5065697;28;20545;-60
2022/08/26 02:02:25;;;;;;;3.58;1.77;;;;;;;;;;5069059;28;20048;-61
2022/08/26 02:05:01;;;;;;;5.18;1.40;;;;;;;;;;5072570;28;20044;-61
2022/08/26 02:07:29;;;;;;;5.80;1.50;;;;;;;;;;5072246;28;20140;-60
2022/08/26 02:09:59;;;;;;;2.38;1.42;;;;;;;;;;5074310;28;20052;-46
2022/08/26 02:12:33;;;;;;;2.83;1.50;;;;;;;;;;5068690;28;20049;-62
2022/08/26 02:15:00;;;;;;;;;;;;;;;;;;5070233;28;20135;-63
2022/08/26 02:17:39;;;;;;;3.42;1.58;;;;;;;;;;5067440;28;20462;-63
2022/08/26 02:20:19;;;;;;;1.95;1.23;;;;;;;;;;5067834;28;20043;-63
2022/08/26 02:22:47;;;;;;;6.75;1.60;;;;;;;;;;5072631;28;20086;-63
2022/08/26 02:25:34;;;;;;;3.83;1.80;;;;;;;;;;5057510;28;20397;-64
2022/08/26 02:28:01;;;;;;;3.85;1.83;;;;;;;;;;5052642;28;20049;-60
2022/08/26 02:30:36;;;;;;;2.65;1.55;;;;;;;;;;5053376;28;20841;-60
2022/08/26 02:33:04;;;;;;;4.43;2.08;;;;;;;;;;5048650;28;20045;-46
2022/08/26 02:35:32;;;;;;;2.38;1.80;;;;;;;;;;5047892;28;20119;-44
2022/08/26 02:38:09;;;;;;;5.07;1.95;;;;;;;;;;5055475;28;20095;-45
2022/08/26 02:40:39;;;;;;;6.75;1.70;;;;;;;;;;5048073;28;20464;-52
2022/08/26 02:43:14;;;;;;;4.28;1.90;;;;;;;;;;5057511;28;20036;-47
2022/08/26 02:45:41;;;;;;;15.23;2.30;;;;;;;;;;5052695;28;20084;-53
2022/08/26 02:48:13;;;;;;;3.35;1.75;;;;;;;;;;5054621;28;20041;-61
2022/08/26 02:50:48;;;;;;;4.32;1.60;;;;;;;;;;5053633;28;20072;-53
2022/08/26 02:53:15;;;;;;;4.78;2.22;;;;;;;;;;5048679;28;20096;-51
2022/08/26 02:55:50;;;;;;;5.97;1.95;;;;;;;;;;5047878;28;20052;-52
2022/08/26 02:58:26;;;;;;;5.22;1.75;;;;;;;;;;5047298;28;20144;-54
2022/08/26 03:00:53;;;;;;;3.95;1.90;;;;;;;;;;5054828;28;20060;-53
2022/08/26 03:03:21;;;;;;;;;;;;;;;;;;5056297;28;20422;-50
2022/08/26 03:05:55;;;;;;;3.28;1.70;;;;;;;;;;5049882;28;19975;-57
2022/08/26 03:08:22;;;;;;;;;;;;;;;;;;5049616;28;20106;-63
2022/08/26 03:10:49;;;;;;;4.07;1.58;;;;;;;;;;5053610;28;19951;-45
2022/08/26 03:13:24;;;;;;;5.00;2.05;;;;;;;;;;5048254;28;20140;-46
2022/08/26 03:15:51;;;;;;;5.03;1.98;;;;;;;;;;5048753;28;20104;-47
2022/08/26 03:18:18;;;;;;;2.70;1.70;;;;;;;;;;5051486;28;20194;-46
2022/08/26 03:20:52;;;;;;;2.13;1.85;;;;;;;;;;5054412;28;20468;-44
2022/08/26 03:23:19;;;;;;;3.50;1.60;;;;;;;;;;5052195;28;20136;-44
2022/08/26 03:25:50;;;;;;;2.53;1.60;;;;;;;;;;5066411;28;20075;-52
2022/08/26 03:28:24;;;;;;;5.70;1.95;;;;;;;;;;5065737;28;20480;-53
2022/08/26 03:30:53;;;;;;;5.15;1.95;;;;;;;;;;5066943;28;20098;-56
2022/08/26 03:33:21;;;;;;;4.40;2.00;;;;;;;;;;5068685;28;20471;-53
2022/08/26 03:35:55;;;;;;;3.05;1.77;;;;;;;;;;5069183;28;20044;-55
2022/08/26 03:38:26;;;;;;;3.58;1.80;;;;;;;;;;5069863;28;20072;-55
2022/08/26 03:40:55;;;;;;;3.75;1.73;;;;;;;;;;5067971;28;20080;-54
2022/08/26 03:43:29;;;;;;;5.28;1.48;;;;;;;;;;5068566;28;20148;-55
2022/08/26 03:45:56;;;;;;;4.80;2.10;;;;;;;;;;5068336;28;20496;-47
2022/08/26 03:48:23;;;;;;;4.07;1.92;;;;;;;;;;5067982;28;20071;-50
2022/08/26 03:50:57;;;;;;;6.13;1.90;;;;;;;;;;5069725;28;20099;-44
2022/08/26 03:53:24;;;;;;;2.03;1.73;;;;;;;;;;5071345;28;20470;-47
2022/08/26 03:55:51;;;;;;;4.10;1.58;;;;;;;;;;5071426;28;20071;-45
2022/08/26 03:58:25;;;;;;;2.05;1.42;;;;;;;;;;5068915;28;20543;-47
2022/08/26 04:00:52;;;;;;;2.50;1.60;;;;;;;;;;5076523;28;20086;-44
2022/08/26 04:06:16;;;;;;;3.90;2.10;;;;;;;;;;5073139;28;20550;-47
2022/08/26 04:08:44;;;;;;;4.55;2.10;;;;;;;;;;5074737;28;20057;-63
2022/08/26 04:11:17;;;;;;;4.15;2.00;;;;;;;;;;5068672;28;20072;-63
2022/08/26 04:13:51;;;;;;;6.10;1.95;;;;;;;;;;5072699;28;20402;-62
2022/08/26 04:16:19;;;;;;;5.25;2.35;;;;;;;;;;5073353;28;20076;-63
2022/08/26 04:18:46;;;;;;;4.13;2.00;;;;;;;;;;5067329;28;20052;-63
2022/08/26 04:21:21;;;;;;;3.55;2.00;;;;;;;;;;5064893;28;20041;-63
2022/08/26 04:23:49;;;;;;;2.92;1.80;;;;;;;;;;5073136;28;20052;-60
2022/08/26 04:26:18;;;;;;;3.30;1.90;;;;;;;;;;5069240;28;20080;-62
2022/08/26 04:28:53;;;;;;;5.43;2.30;;;;;;;;;;5075404;28;20106;-62
2022/08/26 04:31:20;;;;;;;4.38;2.40;;;;;;;;;;5068525;28;20495;-62
2022/08/26 04:33:48;;;;;;;;;;;;;;;;;;5077436;28;20098;-60
2022/08/26 04:36:23;;;;;;;4.72;2.00;;;;;;;;;;5054665;28;20593;-62
2022/08/26 04:38:50;;;;;;;3.33;2.08;;;;;;;;;;5074360;28;20052;-62
2022/08/26 04:41:18;;;;;;;3.47;2.05;;;;;;;;;;5073279;28;20087;-47
2022/08/26 04:43:57;;;;;;;3.55;2.03;;;;;;;;;;5066448;28;20135;-63
2022/08/26 04:46:25;;;;;;;7.07;2.03;;;;;;;;;;5068287;28;20074;-63
2022/08/26 04:48:59;;;;;;;4.38;1.90;;;;;;;;;;5067228;28;20082;-62
2022/08/26 04:51:26;;;;;;;2.72;1.75;;;;;;;;;;5068602;28;20124;-62
2022/08/26 04:53:55;;;;;;;6.75;2.05;;;;;;;;;;5068634;28;20052;-63
2022/08/26 04:56:32;;;;;;;2.92;1.80;;;;;;;;;;5069389;28;20117;-62
2022/08/26 04:59:00;;;;;;;5.10;2.10;;;;;;;;;;5068803;28;20052;-63
2022/08/26 05:01:30;;;;;;;4.53;1.85;;;;;;;;;;5065964;28;20138;-60
2022/08/26 05:04:05;;;;;;;4.47;1.85;;;;;;;;;;5066733;28;20075;-61
2022/08/26 05:06:34;;;;;;;3.72;1.70;;;;;;;;;;5069987;28;20052;-61
2022/08/26 05:09:03;;;;;;;7.13;2.00;;;;;;;;;;5071540;28;20044;-61
2022/08/26 05:11:37;;;;;;;3.35;1.88;;;;;;;;;;5064626;28;20392;-61
2022/08/26 05:14:04;;;;;;;3.05;2.08;;;;;;;;;;5068929;28;20102;-61
2022/08/26 05:16:32;;;;;;;3.20;2.22;;;;;;;;;;5072550;28;20102;-60
2022/08/26 05:19:07;;;;;;;7.93;2.30;;;;;;;;;;5069940;28;20168;-46
2022/08/26 05:21:34;;;;;;;5.40;2.25;;;;;;;;;;5071476;28;20044;-52
2022/08/26 05:24:03;;;;;;;5.43;2.20;;;;;;;;;;5072530;28;20129;-54
2022/08/26 05:26:43;;;;;;;5.00;1.95;;;;;;;;;;5056545;28;20588;-56
2022/08/26 05:29:11;;;;;;;3.83;2.40;;;;;;;;;;5070876;28;20094;-54
2022/08/26 05:31:45;;;;;;;5.15;2.15;;;;;;;;;;5072341;28;20052;-53
2022/08/26 05:34:13;;;;;;;3.20;1.92;;;;;;;;;;5071416;28;20048;-57
2022/08/26 05:36:41;;;;;;;6.25;2.10;;;;;;;;;;5056102;28;20052;-55
2022/08/26 05:39:15;;;;;;;3.53;2.47;;;;;;;;;;5069106;28;20071;-47
2022/08/26 05:41:53;;;;;;;3.03;1.95;;;;;;;;;;5056829;28;20140;-61
2022/08/26 05:44:28;;;;;;;3.65;1.95;;;;;;;;;;5073846;28;20167;-59
2022/08/26 05:47:23;;;;;;;5.72;2.25;;;;;;;;;;5069560;28;20048;-60
2022/08/26 05:49:57;;;;;;;2.72;1.83;;;;;;;;;;5074873;28;20133;-61
2022/08/26 05:52:24;;;;;;;5.75;2.00;;;;;;;;;;5072700;28;20076;-60
2022/08/26 05:54:52;;;;;;;4.07;1.80;;;;;;;;;;5070653;28;20121;-61
2022/08/26 05:57:27;;;;;;;3.78;2.55;;;;;;;;;;5075750;28;20061;-52
2022/08/26 05:59:55;;;;;;;7.38;2.20;;;;;;;;;;5071558;28;20051;-47
2022/08/26 06:02:23;;;;;;;3.20;2.10;;;;;;;;;;5073062;28;20165;-63
2022/08/26 06:04:57;;;;;;;3.92;2.10;;;;;;;;;;5069578;28;20567;-63
2022/08/26 06:08:09;;;;;;;4.60;2.25;;;;;;;;;;5070479;28;20130;-64
2022/08/26 06:10:19;;;;;;;2.55;1.77;;;;;;;;;;5065122;28;20049;-63
2022/08/26 06:12:58;;;;;;;2.85;2.03;;;;;;;;;;5075036;28;20082;-63
2022/08/26 06:15:42;;;;;;;3.47;2.17;;;;;;;;;;5071993;28;20507;-63
2022/08/26 06:18:10;;;;;;;5.32;2.10;;;;;;;;;;5066785;28;20509;-60
2022/08/26 06:20:44;;;;;;;4.13;1.90;;;;;;;;;;5071711;28;20521;-48
2022/08/26 06:26:23;;;;;;;2.47;1.85;;;;;;;;;;5068822;28;20079;-49
2022/08/26 06:28:50;;;;;;;3.58;1.65;;;;;;;;;;5069269;28;20048;-46
2022/08/26 06:31:26;;;;;;;4.35;1.85;;;;;;;;;;5075087;28;20106;-45
2022/08/26 06:33:54;;;;;;;5.30;1.90;;;;;;;;;;5074679;28;20044;-46
2022/08/26 06:36:24;;;;;;;2.47;1.77;;;;;;;;;;5067720;28;20040;-64
2022/08/26 06:39:01;;;;;;;4.90;1.80;;;;;;;;;;5068397;28;20051;-55
2022/08/26 06:41:30;;;;;;;3.58;1.83;;;;;;;;;;5070365;28;20557;-52
2022/08/26 06:44:09;;;;;;;5.38;2.42;;;;;;;;;;5067566;28;20090;-53
2022/08/26 06:46:36;;;;;;;9.32;1.80;;;;;;;;;;5068581;28;20466;-52
2022/08/26 06:49:04;;;;;;;2.45;1.77;;;;;;;;;;5070891;28;20491;-53
2022/08/26 06:51:39;;;;;;;9.02;2.10;;;;;;;;;;5069964;28;20531;-53
2022/08/26 06:54:09;;;;;;;5.20;1.60;;;;;;;;;;5067658;28;20048;-53
2022/08/26 06:56:39;;;;;;;3.97;1.55;;;;;;;;;;5071992;28;20061;-44
2022/08/26 06:59:14;;;;;;;4.40;1.75;;;;;;;;;;5070687;28;20078;-63
2022/08/26 07:01:43;;;;;;;1.85;1.60;;;;;;;;;;5067903;28;20114;-63
2022/08/26 07:04:11;;;;;;;4.65;1.80;;;;;;;;;;5071828;28;20045;-62
2022/08/26 07:06:49;;;;;;;;;;;;;;;;;;5069300;28;20048;-62
2022/08/26 07:09:18;;;;;;;5.72;2.33;;;;;;;;;;5068203;28;20268;-63
2022/08/26 07:11:46;;;;;;;6.28;2.45;;;;;;;;;;5066957;28;20044;-63
2022/08/26 07:14:20;;;;;;;3.40;1.95;;;;;;;;;;5073101;28;20064;-64
2022/08/26 07:16:48;;;;;;;3.70;2.20;;;;;;;;;;5070136;28;20312;-45
2022/08/26 07:19:17;;;;;;;4.32;2.13;;;;;;;;;;5068269;28;20044;-63
2022/08/26 07:21:57;;;;;;;5.25;2.15;;;;;;;;;;5058289;28;20043;-63
2022/08/26 07:24:39;;;;;;;2.97;2.20;;;;;;;;;;5072034;28;20079;-62
2022/08/26 07:27:14;;;;;;;5.43;2.17;;;;;;;;;;5064621;28;20079;-62
2022/08/26 07:29:42;;;;;;;3.15;2.10;;;;;;;;;;5055541;28;20047;-62
2022/08/26 07:32:10;;;;;;;4.82;1.98;;;;;;;;;;5066351;28;20053;-62
2022/08/26 07:34:44;;;;;;;3.35;2.20;;;;;;;;;;5068860;28;20056;-54
2022/08/26 07:37:11;;;;;;;5.25;2.22;;;;;;;;;;5065223;28;20186;-45
2022/08/26 07:39:40;;;;;;;;;;;;;;;;;;5071429;28;20049;-48
2022/08/26 07:42:15;;;;;;;2.88;1.77;;;;;;;;;;5069278;28;20015;-49
2022/08/26 07:44:44;;;;;;;6.32;1.88;;;;;;;;;;5068222;28;20040;-47
2022/08/26 07:47:11;;;;;;;2.85;2.13;;;;;;;;;;5072466;28;20491;-48
2022/08/26 07:49:53;;;;;;;5.13;1.75;;;;;;;;;;5068545;28;20040;-44
2022/08/26 07:52:20;;;;;;;2.85;1.50;;;;;;;;;;5066641;28;20075;-63
2022/08/26 07:54:55;;;;;;;2.97;1.90;;;;;;;;;;5070202;28;20457;-62
2022/08/26 07:57:25;;;;;;;3.92;2.00;;;;;;;;;;5041731;28;20040;-62
2022/08/26 07:59:52;;;;;;;8.27;2.08;;;;;;;;;;5064984;28;20053;-62
2022/08/26 08:02:27;;;;;;;4.72;2.00;;;;;;;;;;5070729;28;20044;-62
2022/08/26 08:04:55;;;;;;;2.92;1.52;;;;;;;;;;5066827;28;20052;-62
2022/08/26 08:07:22;;;;;;;5.05;1.83;;;;;;;;;;5069585;28;20385;-62
2022/08/26 08:10:16;;;;;;;3.17;1.60;;;;;;;;;;5068831;28;20474;-62
2022/08/26 08:12:44;;;;;;;4.68;1.90;;;;;;;;;;5073365;28;20048;-48
2022/08/26 08:15:21;;;;;;;2.90;1.80;;;;;;;;;;5069913;28;20076;-48
2022/08/26 08:17:49;;;;;;;4.63;1.88;;;;;;;;;;5066075;28;20106;-46
2022/08/26 08:20:18;;;;;;;2.40;1.77;;;;;;;;;;5067755;28;20561;-49
2022/08/26 08:22:52;;;;;;;3.95;1.75;;;;;;;;;;5068245;28;20055;-46
2022/08/26 08:25:19;;;;;;;;;;;;;;;;;;5073166;28;20088;-47
2022/08/26 08:27:53;;;;;;;3.22;1.80;;;;;;;;;;5071154;28;19955;-48
2022/08/26 08:30:28;;;;;;;2.78;1.60;;;;;;;;;;5069294;28;20401;-60
2022/08/26 08:32:56;;;;;;;2.78;1.95;;;;;;;;;;5067187;28;20052;-62
2022/08/26 08:35:25;;;;;;;3.17;2.00;;;;;;;;;;5071727;28;20044;-45
2022/08/26 08:37:59;;;;;;;3.63;2.00;;;;;;;;;;5067827;28;20075;-47
2022/08/26 08:40:30;;;;;;;6.35;1.98;;;;;;;;;;5067779;28;20047;-46
2022/08/26 08:42:57;;;;;;;2.53;1.70;;;;;;;;;;5072710;28;20040;-46
2022/08/26 08:45:33;;;;;;;2.58;1.95;;;;;;;;;;5066087;28;20045;-45
2022/08/26 08:48:08;;;;;;;6.10;2.10;;;;;;;;;;5072266;28;20044;-46
2022/08/26 08:50:44;;;;;;;5.45;2.10;;;;;;;;;;5064456;28;20047;-64
2022/08/26 08:53:21;;;;;;;4.72;2.10;;;;;;;;;;5070890;28;20487;-64
2022/08/26 08:55:57;;;;;;;3.97;1.85;;;;;;;;;;5073541;28;20522;-64
2022/08/26 08:58:29;;;;;;;3.00;1.88;;;;;;;;;;5072170;28;20076;-64
2022/08/26 09:01:05;;;;;;;4.53;2.10;;;;;;;;;;5064304;28;20478;-64
2022/08/26 09:03:50;;;;;;;6.80;2.53;;;;;;;;;;5073176;28;20044;-64
2022/08/26 09:06:27;;;;;;;3.35;2.15;;;;;;;;;;5071046;28;20044;-64
2022/08/26 09:08:55;;;;;;;2.83;2.10;;;;;;;;;;5075259;28;20509;-46
2022/08/26 09:11:23;;;;;;;5.95;1.90;;;;;;;;;;5069960;28;20061;-64
2022/08/26 09:13:58;;;;;;;4.80;2.20;;;;;;;;;;5051639;28;20514;-64
2022/08/26 09:16:30;;;;;;;5.60;2.35;;;;;;;;;;5070869;28;20511;-64
2022/08/26 09:19:13;;;;;;;7.63;2.22;;;;;;;;;;5061251;28;20124;-64
2022/08/26 09:21:40;;;;;;;6.63;2.20;;;;;;;;;;5065491;28;20079;-64
2022/08/26 09:24:19;;;;;;;3.38;2.05;;;;;;;;;;5064668;28;20051;-64
2022/08/26 09:26:57;;;;;;;3.10;2.13;;;;;;;;;;5075136;28;20550;-56
2022/08/26 09:29:40;;;;;;;4.88;2.10;;;;;;;;;;5074918;28;20083;-49
2022/08/26 09:32:14;;;;;;;7.00;2.58;;;;;;;;;;5074326;28;20105;-49
2022/08/26 09:35:10;;;;;;;3.60;2.22;;;;;;;;;;5066613;28;20591;-45
2022/08/26 09:37:45;;;;;;;5.88;2.00;;;;;;;;;;5065595;28;20078;-45
2022/08/26 09:40:28;;;;;;;3.40;2.10;;;;;;;;;;5073935;28;20044;-45
2022/08/26 09:43:05;;;;;;;4.38;2.38;;;;;;;;;;5069027;28;20094;-50
2022/08/26 09:45:41;;;;;;;4.85;2.20;;;;;;;;;;5073086;28;20504;-55
2022/08/26 09:48:17;;;;;;;;;;;;;;;;;;5068205;28;20569;-63
2022/08/26 09:50:53;;;;;;;3.88;2.10;;;;;;;;;;5053336;28;20379;-56
2022/08/26 09:53:24;;;;;;;2.58;2.05;;;;;;;;;;5074989;28;20044;-57
2022/08/26 09:56:17;;;;;;;5.47;2.10;;;;;;;;;;5068727;28;20044;-56
2022/08/26 09:58:51;;;;;;;4.15;2.20;;;;;;;;;;5044353;28;20127;-54
2022/08/26 10:01:31;;;;;;;2.90;1.83;;;;;;;;;;5075225;28;20165;-56
2022/08/26 10:04:09;;;;;;;3.65;2.05;;;;;;;;;;5073980;28;20044;-56
2022/08/26 10:06:57;;;;;;;6.22;2.30;;;;;;;;;;5068188;28;20411;-64
2022/08/26 10:09:37;;;;;;;4.85;1.92;;;;;;;;;;5070361;28;20514;-62
2022/08/26 10:12:16;;;;;;;3.60;2.20;;;;;;;;;;5073661;28;20048;-62
2022/08/26 10:14:55;;;;;;;4.80;2.28;;;;;;;;;;5073147;28;20117;-62
2022/08/26 10:17:29;;;;;;;3.47;2.25;;;;;;;;;;5070751;28;20052;-63
2022/08/26 10:20:23;;;;;;;8.55;2.88;;;;;;;;;;5067756;28;20534;-63
2022/08/26 10:23:02;;;;;;;3.42;2.35;;;;;;;;;;5072925;28;20076;-62
2022/08/26 10:25:46;;;;;;;6.65;2.40;;;;;;;;;;5065474;28;20099;-63
2022/08/26 10:28:19;;;;;;;5.80;2.20;;;;;;;;;;5076055;28;20051;-55
2022/08/26 10:31:00;;;;;;;4.03;2.03;;;;;;;;;;5072171;28;20056;-55
2022/08/26 10:33:27;;;;;;;8.98;2.53;;;;;;;;;;5070022;28;20052;-54
2022/08/26 10:36:03;;;;;;;6.72;2.33;;;;;;;;;;5065563;28;20049;-56
2022/08/26 10:38:35;;;;;;;7.40;2.75;;;;;;;;;;5069062;28;20090;-55
2022/08/26 10:41:12;;;;;;;5.68;2.63;;;;;;;;;;5068991;28;20059;-53
2022/08/26 10:43:46;;;;;;;9.27;2.88;;;;;;;;;;5067493;28;20044;-46
2022/08/26 10:46:22;;;;;;;7.72;2.60;;;;;;;;;;5071045;28;21434;-59
2022/08/26 10:48:55;;;;;;;8.45;2.42;;;;;;;;;;5067493;28;20518;-63
2022/08/26 10:51:37;;;;;;;6.43;2.22;;;;;;;;;;5061750;28;20048;-62
2022/08/26 10:54:24;;;;;;;10.38;2.58;;;;;;;;;;5069505;28;20411;-63
2022/08/26 10:57:14;;;;;;;9.23;2.78;;;;;;;;;;5071421;28;20079;-62
2022/08/26 10:59:51;;;;;;;11.52;2.67;;;;;;;;;;5051626;28;20056;-62
2022/08/26 11:02:30;;;;;;;3.47;2.47;;;;;;;;;;5065553;28;20511;-62
2022/08/26 11:05:05;;;;;;;6.55;2.17;;;;;;;;;;5065504;28;20041;-48
2022/08/26 11:07:44;;;;;;;7.07;2.58;;;;;;;;;;5071901;28;20087;-62
2022/08/26 11:10:12;;;;;;;4.85;2.50;;;;;;;;;;5064793;28;20568;-63
2022/08/26 11:12:46;;;;;;;4.07;2.65;;;;;;;;;;5066206;28;20471;-62
2022/08/26 11:15:21;;;;;;;4.88;2.40;;;;;;;;;;5066715;28;20050;-63
2022/08/26 11:17:57;;;;;;;7.10;2.70;;;;;;;;;;5068866;28;20044;-62
2022/08/26 11:20:42;;;;;;;4.95;2.53;;;;;;;;;;5068876;28;20139;-63
2022/08/26 11:23:23;;;;;;;4.78;2.33;;;;;;;;;;5066767;28;20071;-47
2022/08/26 11:26:03;;;;;;;3.63;2.15;;;;;;;;;;5065680;28;20147;-45
2022/08/26 11:28:50;;;;;;;4.20;2.50;;;;;;;;;;5067696;28;20063;-47
2022/08/26 11:31:18;;;;;;;8.65;2.60;;;;;;;;;;5071462;28;20068;-46
2022/08/26 11:34:13;;;;;;;4.50;2.42;;;;;;;;;;5071362;28;20126;-49
2022/08/26 11:36:54;;;;;;;6.88;2.47;;;;;;;;;;5071066;28;20078;-46
2022/08/26 11:39:51;;;;;;;6.53;2.72;;;;;;;;;;5068714;28;20315;-47
2022/08/26 11:42:34;;;;;;;7.20;2.30;;;;;;;;;;5066011;28;20048;-63
2022/08/26 11:45:18;;;;;;;3.72;2.40;;;;;;;;;;5066489;28;20399;-61
2022/08/26 11:47:45;;;;;;;7.07;2.47;;;;;;;;;;5070149;28;20063;-63
2022/08/26 11:50:22;;;;;;;4.85;2.10;;;;;;;;;;5066910;28;20125;-62
2022/08/26 11:52:50;;;;;;;6.82;2.63;;;;;;;;;;5069499;28;20044;-62
2022/08/26 11:55:19;;;;;;;3.78;2.17;;;;;;;;;;5067741;28;20453;-63
2022/08/26 11:57:54;;;;;;;5.97;2.33;;;;;;;;;;5067786;28;20144;-63
2022/08/26 12:00:24;;;;;;;6.75;2.58;;;;;;;;;;5070896;28;20052;-48
2022/08/26 12:02:53;;;;;;;6.93;3.03;;;;;;;;;;5076123;28;20075;-57
2022/08/26 12:05:34;;;;;;;6.32;2.30;;;;;;;;;;5070548;28;20091;-57
2022/08/26 12:08:10;;;;;;;7.00;2.55;;;;;;;;;;5063676;28;20183;-57
2022/08/26 12:10:44;;;;;;;8.27;2.60;;;;;;;;;;5064266;28;20072;-57
2022/08/26 12:13:11;;;;;;;;;;;;;;;;;;5074021;28;20049;-56
2022/08/26 12:15:38;;;;;;;7.07;2.60;;;;;;;;;;5065406;28;19920;-57
2022/08/26 12:18:19;;;;;;;3.92;2.47;;;;;;;;;;5050320;28;20095;-62
2022/08/26 12:20:55;;;;;;;4.90;2.53;;;;;;;;;;5064516;28;20063;-63
2022/08/26 12:23:33;;;;;;;4.07;2.53;;;;;;;;;;5070248;28;20428;-56
2022/08/26 12:26:35;;;;;;;7.13;2.55;;;;;;;;;;5068298;28;20064;-54
2022/08/26 12:29:24;;;;;;;10.38;3.08;;;;;;;;;;5070425;28;20052;-54
2022/08/26 12:32:06;;;;;;;6.10;3.05;;;;;;;;;;5070266;28;20048;-57
2022/08/26 12:34:47;;;;;;;5.57;2.53;;;;;;;;;;5072491;28;20070;-56
2022/08/26 12:37:15;;;;;;;11.07;2.83;;;;;;;;;;5065919;28;20067;-64
2022/08/26 12:39:49;;;;;;;4.00;2.78;;;;;;;;;;5067917;28;20041;-62
2022/08/26 12:42:16;;;;;;;;;;;;;;;;;;5071114;28;20048;-49
2022/08/26 12:44:44;;;;;;;7.30;2.95;;;;;;;;;;5044252;28;19927;-49
2022/08/26 12:47:41;;;;;;;3.38;2.17;;;;;;;;;;5074150;28;20414;-48
2022/08/26 12:50:19;;;;;;;6.22;2.75;;;;;;;;;;5073527;28;20068;-46
2022/08/26 12:52:56;;;;;;;5.78;2.75;;;;;;;;;;5072894;28;20044;-47
2022/08/26 12:55:23;;;;;;;9.48;2.97;;;;;;;;;;5070601;28;20060;-46
2022/08/26 12:58:08;;;;;;;6.60;2.53;;;;;;;;;;5066627;28;20049;-62
2022/08/26 13:00:46;;;;;;;6.65;2.30;;;;;;;;;;5051085;28;20475;-64
2022/08/26 13:03:33;;;;;;;5.68;2.30;;;;;;;;;;5071259;28;20044;-65
2022/08/26 13:06:19;;;;;;;6.00;2.85;;;;;;;;;;5073812;28;20040;-65
2022/08/26 13:08:47;;;;;;;4.18;2.53;;;;;;;;;;5073410;28;20507;-65
2022/08/26 13:11:25;;;;;;;5.13;2.63;;;;;;;;;;5071695;28;20048;-64
2022/08/26 13:13:55;;;;;;;7.88;2.50;;;;;;;;;;5072701;28;20388;-65
2022/08/26 13:16:33;;;;;;;5.15;2.40;;;;;;;;;;5073246;28;20048;-64
2022/08/26 13:19:03;;;;;;;6.38;2.60;;;;;;;;;;5073238;28;20132;-56
2022/08/26 13:21:45;;;;;;;6.85;2.95;;;;;;;;;;5077770;28;20052;-56
2022/08/26 13:24:16;;;;;;;3.97;2.35;;;;;;;;;;5067048;28;20462;-56
2022/08/26 13:27:00;;;;;;;4.18;2.45;;;;;;;;;;5040543;28;20055;-55
2022/08/26 13:29:28;;;;;;;4.55;2.30;;;;;;;;;;5054171;28;20056;-57
2022/08/26 13:32:03;;;;;;;5.72;2.53;;;;;;;;;;5050688;28;20044;-57
2022/08/26 13:34:31;;;;;;;8.05;2.47;;;;;;;;;;5052226;28;20086;-45
2022/08/26 13:36:58;;;;;;;5.00;2.70;;;;;;;;;;5048201;28;20060;-63
2022/08/26 13:39:32;;;;;;;3.22;2.30;;;;;;;;;;5053124;28;20447;-65
2022/08/26 13:41:59;;;;;;;;;;;;;;;;;;5053266;28;20053;-64
2022/08/26 13:44:27;;;;;;;7.20;2.58;;;;;;;;;;5045812;28;20079;-65
2022/08/26 13:47:01;;;;;;;4.93;2.15;;;;;;;;;;5048074;28;20384;-65
2022/08/26 13:49:28;;;;;;;4.82;2.17;;;;;;;;;;5045636;28;20064;-63
2022/08/26 13:51:55;;;;;;;3.92;2.35;;;;;;;;;;5047150;28;20060;-65
2022/08/26 13:54:29;;;;;;;3.88;2.15;;;;;;;;;;5051453;28;20055;-62
2022/08/26 13:56:56;;;;;;;;;;;;;;;;;;5049795;28;20092;-63
2022/08/26 13:59:23;;;;;;;6.38;2.65;;;;;;;;;;5049011;28;19921;-64
2022/08/26 14:01:57;;;;;;;4.15;2.55;;;;;;;;;;5052670;28;20076;-63
2022/08/26 14:04:25;;;;;;;6.18;2.50;;;;;;;;;;5046284;28;20057;-63
2022/08/26 14:06:53;;;;;;;3.58;2.20;;;;;;;;;;5048267;28;20056;-63
2022/08/26 14:09:27;;;;;;;8.07;2.42;;;;;;;;;;5050260;28;20049;-64
2022/08/26 14:11:54;;;;;;;;;;;;;;;;;;5048613;28;20057;-63
2022/08/26 14:14:23;;;;;;;6.47;2.33;;;;;;;;;;5054234;28;19921;-62
2022/08/26 14:16:57;;;;;;;6.68;2.35;;;;;;;;;;5050032;28;20049;-50
2022/08/26 14:19:27;;;;;;;5.72;2.53;;;;;;;;;;5052018;28;20087;-46
2022/08/26 14:21:54;;;;;;;8.85;2.60;;;;;;;;;;5053633;28;20064;-48
2022/08/26 14:24:28;;;;;;;8.68;2.85;;;;;;;;;;5053329;28;20048;-49
2022/08/26 14:27:01;;;;;;;5.30;2.35;;;;;;;;;;5060288;28;20439;-52
2022/08/26 14:29:36;;;;;;;7.10;2.35;;;;;;;;;;5072070;28;20595;-48
2022/08/26 14:32:10;;;;;;;9.27;3.38;;;;;;;;;;5069874;28;20749;-56
2022/08/26 14:34:48;;;;;;;7.22;2.40;;;;;;;;;;5071019;28;20045;-62
2022/08/26 14:37:16;;;;;;;;;;;;;;;;;;5071239;28;20060;-57
2022/08/26 14:39:44;;;;;;;9.10;2.85;;;;;;;;;;5074228;28;19920;-57
2022/08/26 14:42:21;;;;;;;11.38;2.80;;;;;;;;;;5070641;28;20058;-57
2022/08/26 14:44:54;;;;;;;7.15;2.72;;;;;;;;;;5069007;28;20074;-58
2022/08/26 14:47:28;;;;;;;8.18;2.85;;;;;;;;;;5074149;28;20118;-57
2022/08/26 14:49:56;;;;;;;8.23;2.60;;;;;;;;;;5063147;28;20059;-57
2022/08/26 14:52:23;;;;;;;;;;;;;;;;;;5068771;28;20051;-63
2022/08/26 14:54:57;;;;;;;9.60;2.47;;;;;;;;;;5066739;28;19939;-48
2022/08/26 14:57:24;;;;;;;8.52;2.40;;;;;;;;;;5062878;28;20052;-47
2022/08/26 14:59:52;;;;;;;10.25;2.50;;;;;;;;;;5064573;28;20044;-51
2022/08/26 15:02:27;;;;;;;11.93;2.80;;;;;;;;;;5068961;28;20044;-46
2022/08/26 15:05:00;;;;;;;7.63;2.40;;;;;;;;;;5057944;28;20668;-47
2022/08/26 15:07:34;;;;;;;9.85;2.90;;;;;;;;;;5063770;28;20048;-46
2022/08/26 15:10:01;;;;;;;15.38;2.90;;;;;;;;;;5067098;28;20056;-64
2022/08/26 15:12:28;;;;;;;6.43;2.60;;;;;;;;;;5066329;28;20107;-62
2022/08/26 15:15:03;;;;;;;6.22;2.70;;;;;;;;;;5064577;28;20052;-62
2022/08/26 15:17:30;;;;;;;8.85;2.40;;;;;;;;;;5067022;28;20059;-63
2022/08/26 15:19:57;;;;;;;8.70;2.70;;;;;;;;;;5071707;28;20521;-62
2022/08/26 15:22:31;;;;;;;10.40;2.80;;;;;;;;;;5061215;28;20064;-61
2022/08/26 15:24:58;;;;;;;;;;;;;;;;;;5067240;28;20306;-62
2022/08/26 15:27:26;;;;;;;7.30;2.38;;;;;;;;;;5052439;28;19935;-61
2022/08/26 15:30:08;;;;;;;6.07;2.65;;;;;;;;;;5047080;28;20049;-65